Timeline UpdatesTrip UpdatesNews PostsPvt PostsTravel TipsAdmin PostsConv PostsFollowed PostsChat RequestsBlog PostsPNR Posts

Disclaimer
Search
 
 
Tue Sep 2, 2014 07:25:14 ISTHomeTrainsΣChainsAtlasPNRForumGalleryNewsFAQTripsMembersLoginFeedback
No Recent News for this Train
Other Trains in the News **new
Latest...
.
Mon Sep 01, 2014 (10:27PM)
⇐ Return Journey: Train# 15708

15707/Amrapali Express

Time-Table HAS CHANGED.
Yesterday (11:37PM)
Change Departure Station:
Change Arrival Station:
Post a Train Travel TipPost a Train Travel Tip **new
Post a Comment/Question/Picture/VideoPost a Comment/Question/Picture/Video
Pantry/Catering
✕ NO Pantry Car
✓ Catering Avbl
RSA - Rake Sharing
Rake/Coach Composition
Loco«SLR-GN-GN-GN-GN-A1-B1-S1-S2-S3-S4-S5-S6-S7-S8-S9-GN-GN-GN-GN-GN-SLR= 22 Coach Train. S1 becomes S9 in DN train.
Loco
SGUJ WDP 4 from KIR-LKO, CNB WAP 4 from...
Read more...
LKO-ASR.
News    PNR    Forum    Time-Table    Availability    Fare Chart    Map    Arr/Dep History    Trips    Gallery    ΣChains    X/O    Timeline    
Travel Time: 19h 40m    25 halts    Distance: 984 km    Avg Speed: 50 km/hr
Type: Mail/Express
Zone: NFR/Northeast Frontier
Departs @ 17:05
Platform# ???
SMTWTFS
Barabanki Junction/BBK 
Arrives @ 12:45 +1 night
Platform# 3
SMTWTFS
Amritsar Junction/ASR 

25 halts. 155 intermediate Stations between Barabanki Junction and Amritsar Junction

Show ALL intermediate Stations  Show Old Time-Table

#CodeStation NameX/OArrivesAvgDepartsAvgHaltPFDay#KmSpeedElevZoneAddress
1KIRKatihar Junction (7)  -23:30-11-814.96435mNFRKatihar 854105, Bihar
2CRRKaragola Road  23:51-23:52-1m--1-792.67836mECRLachhmipur, Bihar
3KUEKursela  00:07 00:05-00:08 00:06-1m--2-775.74831mECRNH 31, Bihar
4NNANaugachia (3)  00:25 00:29-00:26 00:30-1m22-757.16437mECRBhagalpur, Bihar
5THBThana Bihpur Junction (3)  00:42 00:45-00:43 00:46-1m--2-741.27639mECRThana Bihpur, Bihar
6MNEMansi Junction (4)X  01:23 01:19-01:24 01:20-1m--2-699.24843mECRMansi, Bihar
7KGGKhagaria Junction (3)  01:43 01:31-01:44 01:32-1m--2-690.45343mECRKhagaria, Bihar
8BGSBegusarai (3)X  02:30 02:17-02:31 02:18-1m--2-650.51546mECRBegusarai, Bihar
9BJUBarauni Junction (9)X  03:10-03:20-10m72-637.15549mECRBegusarai, Bihar
10SPJSamastipur Junction (9)X  04:17 04:15-04:22 04:20-5m82-586.55855mECRSamastipur, Bihar
11KRBPKhudiram B Pusa (2)X  04:36 04:34-04:37 04:35-1m--2-572.96252mECRDistt. Samastipur, Bihar
12DOLDholi (2)  04:50 04:48-04:51 04:49-1m--2-559.642 ECRDistt. Muzaffarpur, Bihar
13MFPMuzaffarpur Junction (6)X  05:27 05:25-05:37 05:30-10 5m32-534.44157mECRMuzaffarpur, Bihar
14HJPHajipur Junction (3)  06:49-06:50-1m--2-480.63355mECR06224-272230, Bihar
15SEESonpur Junction (4)X  07:00-07:10-10m32-475.12756mECRSaran, Bihar
16CPRChhapra Junction (6)  08:40 09:10-08:50 09:20-10m32-421.08258mNERDistt: Saran, Bihar
17SVSiwan Junction (4)  09:40 10:05-09:45 10:10-5m--2-359.87170mNERSiwan, Bihar
18DEOSDeoria Sadar (3)  11:04 11:09-11:05 11:10-1m--2-290.33579mNERDeoria- 274001, Uttar Pradesh
19GKPGorakhpur Junction (10)X  12:15 12:35-12:35 12:50-20 15m52-241.24884mNERGorakhpur 273001, Uttar Pradesh
20KLDKhalilabad (3)  13:12 13:32-13:13 13:33-1m12-207.36686mNERKhalilabad- 272175, Uttar Pradesh
21BSTBasti (4)  13:40 14:00-13:45 14:05-5m12-177.712590mNERBasti 272001, Uttar Pradesh
22MURMankapur Junction (5)X14:34-14:36-2m--2-117.238104mNERDistrict Gonda, Uttar Pradesh
23GDGonda Junction (3)  15:00 15:20-15:05 15:25-5m12-89.355110mNERGonda 271001, Uttar Pradesh
24BBK»Barabanki Junction (4)»  17:03-17:05-2m--20.038122mNRPin-225001, Uttar Pradesh
25LKOLucknow Charbagh (9)X  17:50-18:25-35m4228.567123mNR226004, Uttar Pradesh
26ONUnnao Junction (5)X  19:15 19:14-19:16 19:15-1m--283.130129mNRUnnao, Uttar Pradesh
27CNBKanpur Central (10)X  19:50-20:00-10m62100.586128mNCRKANPUR-208 001, Uttar Pradesh
28ETWEtawah (5)X  21:37-21:38-1m22239.987154mNCRDistt. Etawah, Uttar Pradesh
29FZDFirozabad (4)X  22:30-22:31-1m32315.225164mNCRFirozabad, Uttar Pradesh
30TDLTundla Junction (5)X  23:10-23:15-5m22331.782167mNCRDistt.Firozabad, Uttar Pradesh
31HRSHathras Junction (3)X  23:47 23:50-23:48 23:51-1m--2379.775183mNCRMahamaya Nagar(05722-242803), Uttar Pradesh
32ALJNAligarh Junction (4)  00:15-00:20-5m33409.987192mNCRAligarh, Uttar Pradesh
33KRJKhurja Junction (4)X00:50-00:52-2m--3453.352199mNCRBulandshahr, Uttar Pradesh
34GZBGhaziabad Junction (6)  02:05-02:07-2m33516.045217mNRGhaziabad, Uttar Pradesh
35DSAShahdara Junction (4)  02:25-02:26-1m--3529.716212mNRCircular Rd, Delhi NCT
36DLIOld Delhi Junction (16)  02:50-03:25-35m103535.956219mNRNear Chandni Chowk Metro Station, Delhi NCT
37SNPSonipat (3)X  04:12-04:13-1m--3579.871225mNRSonipat, Haryana
38PNPPanipat Junction (5)X  04:51-04:53-2m33625.076235mNRPanipat, Haryana
39KUNKarnal (3)  05:20-05:21-1m23659.464253mNRKarnal, Haryana
40KKDEKurukshetra Junction (3)  05:52-05:54-2m--3692.545260mNRKurukshetra, Haryana
41UMBAmbala Cantt. Junction (7)  06:50-07:00-10m73734.667278mNRAmbala 133001, Haryana
42RPJRajpura Junction (3)07:25-07:27 07:26-2 1m13762.668272mNRNH-1, Punjab
43SIRSirhind Junction (3)X  07:43 07:48-07:45 07:50-2m13787.577271mNRSirhind, Punjab
44KNNKhanna (3)X  07:59 08:04-08:00 08:05-1m13805.443269mNRNH 1, Punjab
45LDHLudhiana Junction (7)X  08:45 09:05-08:55 09:15-10m23848.233246mNRLudhiana 141001, Punjab
46PHRPhillaur Junction (3)  09:19 09:39-09:20 09:40-1m23861.371246mNRPhillaur, Punjab
47PGWPhagwara Junction (3)X  09:39 09:59-09:40 10:00-1m23883.985245mNRPhagwara, Punjab
48JUCJalandhar City Junction (5)  09:55 10:15-10:05 10:25-10m13905.049239mNRJalandhar 144001, Punjab
49BEASBeas Junction (2)X  10:53 11:09-10:54 11:10-1m13941.127238mNRBeas, Punjab
50ASR•Amritsar Junction (5)•  12:30 12:45--33984.1-233mNRAmritsar 143002, Punjab
Scroll to Top
Scroll to Bottom